createdAt,value
2018-07-16T00:00:31.232Z,55964.78
2018-07-16T00:03:00.403Z,55954.49
2018-07-16T00:05:29.570Z,55956.55
2018-07-16T00:07:58.621Z,55954.49
2018-07-16T00:10:27.689Z,55957.58
2018-07-16T00:12:56.786Z,55931.87
2018-07-16T00:15:25.918Z,55950.38
2018-07-16T00:17:54.991Z,55950.38
2018-07-16T00:20:24.063Z,55957.58
2018-07-16T00:22:53.235Z,55942.16
2018-07-16T00:25:22.327Z,55947.30
2018-07-16T00:27:51.484Z,55958.61
2018-07-16T00:30:20.606Z,55977.11
2018-07-16T00:32:49.722Z,55950.38
2018-07-16T00:35:18.864Z,55967.86
2018-07-16T00:37:47.975Z,55961.69
2018-07-16T00:40:17.104Z,55944.21
2018-07-16T00:42:46.200Z,56030.58
2018-07-16T00:45:15.306Z,55965.80
2018-07-16T00:47:44.449Z,55964.78
2018-07-16T00:50:13.546Z,55978.14
2018-07-16T00:52:42.642Z,55962.72
2018-07-16T00:55:11.775Z,55976.09
2018-07-16T00:57:40.823Z,55998.71
2018-07-16T01:00:09.943Z,55965.80
2018-07-16T01:02:39.060Z,55964.78
2018-07-16T01:05:08.196Z,55991.51
2018-07-16T01:07:37.355Z,55975.06
2018-07-16T01:10:06.501Z,55962.72
2018-07-16T01:12:35.640Z,55954.49
2018-07-16T01:15:04.783Z,55970.95
2018-07-16T01:17:33.924Z,55980.20
2018-07-16T01:20:03.021Z,55984.31
2018-07-16T01:22:32.145Z,55968.89
2018-07-16T01:25:01.356Z,55939.07
2018-07-16T01:27:30.754Z,55964.78
2018-07-16T01:29:59.891Z,55963.75
2018-07-16T01:32:28.958Z,55994.59
2018-07-16T01:34:58.010Z,55977.11
2018-07-16T01:37:27.111Z,55964.78
2018-07-16T01:39:56.259Z,56010.02
2018-07-16T01:42:25.389Z,55988.43
2018-07-16T01:44:54.474Z,56003.85
2018-07-16T01:47:23.835Z,55963.75
2018-07-16T01:49:52.913Z,55971.97
2018-07-16T01:52:22.003Z,56001.79
2018-07-16T01:54:51.054Z,55994.59
2018-07-16T01:57:20.211Z,55987.40
2018-07-16T01:59:49.335Z,55962.72
2018-07-16T02:02:18.458Z,55989.45
2018-07-16T02:04:47.614Z,55979.17
2018-07-16T02:07:16.685Z,55959.63
2018-07-16T02:09:45.970Z,56001.79
2018-07-16T02:12:15.024Z,55973.00
2018-07-16T02:14:44.116Z,55983.28
2018-07-16T02:17:13.207Z,55996.65
2018-07-16T02:19:42.328Z,55956.55
2018-07-16T02:22:11.438Z,56000.76
2018-07-16T02:24:40.551Z,55985.34
2018-07-16T02:27:09.642Z,56006.93
2018-07-16T02:29:38.775Z,55975.06
2018-07-16T02:32:07.891Z,55975.06
2018-07-16T02:34:36.997Z,55983.28
2018-07-16T02:37:06.098Z,55978.14
2018-07-16T02:39:35.235Z,56059.37
2018-07-16T02:42:04.311Z,55980.20
2018-07-16T02:44:33.358Z,56022.36
2018-07-16T02:47:02.464Z,55979.17
2018-07-16T02:49:31.618Z,56019.27
2018-07-16T02:52:00.706Z,56005.90
2018-07-16T02:54:29.810Z,55977.11
2018-07-16T02:56:58.915Z,55979.17
2018-07-16T02:59:28.021Z,56017.21
2018-07-16T03:01:57.179Z,56029.55
2018-07-16T03:04:26.303Z,56001.79
2018-07-16T03:06:55.483Z,56007.96
2018-07-16T03:09:24.541Z,55986.37
2018-07-16T03:11:53.650Z,55969.92
2018-07-16T03:14:23.161Z,56020.30
2018-07-16T03:16:52.275Z,55983.28
2018-07-16T03:19:21.379Z,56014.13
2018-07-16T03:21:50.494Z,55999.73
2018-07-16T03:24:19.546Z,55998.71
2018-07-16T03:26:48.643Z,55989.45
2018-07-16T03:29:17.766Z,56004.87
2018-07-16T03:31:46.841Z,55984.31
2018-07-16T03:34:15.897Z,56010.02
2018-07-16T03:36:45.003Z,55983.28
2018-07-16T03:39:14.135Z,56012.07
2018-07-16T03:41:43.238Z,56017.21
2018-07-16T03:44:12.334Z,55980.20
2018-07-16T03:46:41.378Z,55964.78
2018-07-16T03:49:10.483Z,56005.90
2018-07-16T03:51:39.645Z,56011.05
2018-07-16T03:54:08.803Z,56005.90
2018-07-16T03:56:37.899Z,56022.36
2018-07-16T03:59:07.036Z,55985.34
2018-07-16T04:01:36.182Z,55981.23
2018-07-16T04:04:05.376Z,55992.54
2018-07-16T04:06:34.497Z,55981.23
2018-07-16T04:09:03.814Z,55981.23
2018-07-16T04:11:32.930Z,56010.02
2018-07-16T04:14:02.098Z,55986.37
2018-07-16T04:16:31.182Z,55989.45
2018-07-16T04:19:00.289Z,55979.17
2018-07-16T04:21:29.356Z,56011.05
2018-07-16T04:23:58.426Z,56001.79
2018-07-16T04:26:27.525Z,55994.59
2018-07-16T04:28:56.593Z,55984.31
2018-07-16T04:31:25.843Z,56003.85
2018-07-16T04:33:54.941Z,56011.05
2018-07-16T04:36:24.054Z,56024.41
2018-07-16T04:38:53.143Z,56005.90
2018-07-16T04:41:22.215Z,55989.45
2018-07-16T04:43:51.311Z,55992.54
2018-07-16T04:46:20.433Z,55966.83
2018-07-16T04:48:49.525Z,55958.61
2018-07-16T04:51:18.609Z,55979.17
2018-07-16T04:53:47.734Z,55988.43
2018-07-16T04:56:16.942Z,55963.75
2018-07-16T04:58:46.000Z,55990.48
2018-07-16T05:01:15.127Z,55993.57
2018-07-16T05:03:44.217Z,55981.23
2018-07-16T05:06:13.326Z,55993.57
2018-07-16T05:08:42.436Z,55953.46
2018-07-16T05:11:11.520Z,55976.09
2018-07-16T05:13:40.662Z,55989.45
2018-07-16T05:16:09.721Z,55963.75
2018-07-16T05:18:38.799Z,55978.14
2018-07-16T05:21:07.908Z,55998.71
2018-07-16T05:23:36.993Z,55995.62
2018-07-16T05:26:06.102Z,55994.59
2018-07-16T05:28:35.275Z,56008.99
2018-07-16T05:31:04.417Z,55970.95
2018-07-16T05:33:33.532Z,55966.83
2018-07-16T05:36:02.657Z,55981.23
2018-07-16T05:38:31.759Z,55991.51
2018-07-16T05:41:05.366Z,55993.57
2018-07-16T05:43:34.558Z,55978.14
2018-07-16T05:46:03.642Z,55994.59
2018-07-16T05:48:32.767Z,55964.78
2018-07-16T05:51:01.829Z,55973.00
2018-07-16T05:53:30.891Z,55858.87
2018-07-16T05:55:59.971Z,55767.36
2018-07-16T05:58:29.079Z,55741.66
2018-07-16T06:00:58.232Z,55715.96
2018-07-16T06:03:27.322Z,55690.25
2018-07-16T06:05:56.433Z,55668.66
2018-07-16T06:08:27.801Z,55662.49
2018-07-16T06:10:57.355Z,55628.56
2018-07-16T06:13:26.455Z,55636.79
2018-07-16T06:15:55.551Z,55674.83
2018-07-16T06:18:24.687Z,55637.82
2018-07-16T06:20:53.863Z,55659.41
2018-07-16T06:23:23.023Z,55666.61
2018-07-16T06:25:52.159Z,55626.51
2018-07-16T06:28:21.272Z,55613.14
2018-07-16T06:30:50.431Z,55594.64
2018-07-16T06:33:19.542Z,55613.14
2018-07-16T06:35:48.646Z,55628.56
2018-07-16T06:38:17.734Z,55613.14
2018-07-16T06:40:46.898Z,55688.20
2018-07-16T06:43:15.932Z,55662.49
2018-07-16T06:45:45.020Z,55639.88
2018-07-16T06:48:14.157Z,55657.35
2018-07-16T06:50:43.347Z,55675.86
2018-07-16T06:53:12.610Z,55764.28
2018-07-16T06:55:41.737Z,55851.68
2018-07-16T06:58:10.884Z,55888.69
2018-07-16T07:00:39.971Z,55894.86
2018-07-16T07:03:09.191Z,55905.14
2018-07-16T07:05:38.686Z,55888.69
2018-07-16T07:08:08.151Z,55910.28
2018-07-16T07:10:37.266Z,55919.54
2018-07-16T07:13:06.399Z,55885.61
2018-07-16T07:15:35.547Z,55878.41
2018-07-16T07:18:04.745Z,55886.63
2018-07-16T07:20:33.778Z,55884.57
2018-07-16T07:23:02.925Z,55917.48
2018-07-16T07:25:32.025Z,55907.20
2018-07-16T07:28:01.429Z,55901.03
2018-07-16T07:30:30.561Z,55898.97
2018-07-16T07:32:59.711Z,55895.89
2018-07-16T07:35:28.764Z,55927.76
2018-07-16T07:37:57.834Z,55903.08
2018-07-16T07:40:26.966Z,55881.49
2018-07-16T07:42:56.065Z,55902.05
2018-07-16T07:45:25.203Z,55898.97
2018-07-16T07:47:54.376Z,55893.83
2018-07-16T07:50:23.269Z,55903.08
2018-07-16T07:52:52.413Z,55879.43
2018-07-16T07:55:21.966Z,55905.14
2018-07-16T07:57:50.607Z,55895.89
2018-07-16T08:00:19.714Z,55875.32
2018-07-16T08:02:48.813Z,55880.46
2018-07-16T08:05:17.954Z,55889.72
2018-07-16T08:07:47.021Z,55871.21
2018-07-16T08:10:16.102Z,55875.32
2018-07-16T08:12:45.218Z,55866.07
2018-07-16T08:15:14.349Z,55903.08
2018-07-16T08:17:43.467Z,55876.35
2018-07-16T08:20:12.529Z,55871.21
2018-07-16T08:22:41.640Z,55898.97
2018-07-16T08:25:10.742Z,55891.77
2018-07-16T08:27:39.856Z,55887.66
2018-07-16T08:30:09.037Z,55861.95
2018-07-16T08:32:38.238Z,55861.95
2018-07-16T08:35:07.366Z,55886.63
2018-07-16T08:37:36.486Z,55867.10
2018-07-16T08:40:06.765Z,55890.75
2018-07-16T08:42:35.882Z,55870.18
2018-07-16T08:45:05.050Z,55874.29
2018-07-16T08:47:34.105Z,55882.52
2018-07-16T08:50:03.242Z,55872.24
2018-07-16T08:52:32.358Z,55847.56
2018-07-16T08:55:01.467Z,55824.94
2018-07-16T08:57:30.582Z,55750.91
2018-07-16T08:59:59.780Z,55751.94
2018-07-16T09:02:28.881Z,55724.18
2018-07-16T09:04:58.039Z,55754.00
2018-07-16T09:07:27.093Z,55771.48
2018-07-16T09:09:56.199Z,55719.04
2018-07-16T09:12:25.301Z,55730.35
2018-07-16T09:14:54.433Z,55723.15
2018-07-16T09:17:23.631Z,55736.52
2018-07-16T09:19:52.771Z,55741.66
2018-07-16T09:22:21.899Z,55734.46
2018-07-16T09:24:51.089Z,55746.80
2018-07-16T09:27:20.178Z,55722.12
2018-07-16T09:29:49.283Z,55731.38
2018-07-16T09:32:18.475Z,55709.79
2018-07-16T09:34:47.567Z,55694.36
2018-07-16T09:37:16.678Z,55703.62
2018-07-16T09:39:45.756Z,55694.36
2018-07-16T09:42:14.881Z,55719.04
2018-07-16T09:44:43.961Z,55733.43
2018-07-16T09:47:13.120Z,55722.12
2018-07-16T09:49:42.154Z,55697.45
2018-07-16T09:52:11.402Z,55716.98
2018-07-16T09:54:40.401Z,55701.56
2018-07-16T09:57:09.654Z,55714.93
2018-07-16T09:59:38.780Z,55777.64
2018-07-16T10:02:13.249Z,55762.22
2018-07-16T10:04:42.331Z,55724.18
2018-07-16T10:07:11.612Z,55744.74
2018-07-16T10:09:40.685Z,55711.84
2018-07-16T10:12:10.083Z,55713.90
2018-07-16T10:14:39.208Z,55728.29
2018-07-16T10:17:08.994Z,55771.48
2018-07-16T10:19:38.091Z,55773.53
2018-07-16T10:22:07.776Z,55777.64
2018-07-16T10:24:36.842Z,55766.34
2018-07-16T10:27:06.015Z,55796.15
2018-07-16T10:29:35.134Z,55801.29
2018-07-16T10:32:04.229Z,55864.01
2018-07-16T10:34:33.366Z,55825.97
2018-07-16T10:37:02.539Z,55846.53
2018-07-16T10:39:31.739Z,55827.00
2018-07-16T10:42:01.701Z,55837.28
2018-07-16T10:44:30.831Z,55848.59
2018-07-16T10:46:59.987Z,55843.45
2018-07-16T10:49:29.160Z,55857.84
2018-07-16T10:51:58.264Z,55845.50
2018-07-16T10:54:27.428Z,55822.88
2018-07-16T10:56:56.545Z,55844.48
2018-07-16T10:59:25.749Z,55842.42
2018-07-16T11:01:54.846Z,55859.90
2018-07-16T11:04:23.976Z,55841.39
2018-07-16T11:06:53.079Z,55831.11
2018-07-16T11:09:22.202Z,55825.97
2018-07-16T11:11:57.675Z,55841.39
2018-07-16T11:14:26.812Z,55859.90
2018-07-16T11:16:56.272Z,55859.90
2018-07-16T11:19:25.373Z,55865.04
2018-07-16T11:21:54.476Z,55864.01
2018-07-16T11:24:23.684Z,55872.24
2018-07-16T11:26:52.758Z,55866.07
2018-07-16T11:29:21.887Z,55877.38
2018-07-16T11:31:50.955Z,55859.90
2018-07-16T11:34:20.063Z,55830.08
2018-07-16T11:36:49.201Z,55850.64
2018-07-16T11:39:18.375Z,55830.08
2018-07-16T11:41:47.588Z,55857.84
2018-07-16T11:44:16.750Z,55859.90
2018-07-16T11:46:45.882Z,55818.77
2018-07-16T11:49:15.015Z,55829.05
2018-07-16T11:51:44.101Z,55845.50
2018-07-16T11:54:13.237Z,55853.73
2018-07-16T11:56:42.290Z,55845.50
2018-07-16T11:59:11.394Z,55838.31
2018-07-16T12:01:40.504Z,55835.22
2018-07-16T12:04:09.885Z,55854.76
2018-07-16T12:06:38.994Z,55841.39
2018-07-16T12:09:08.285Z,55854.76
2018-07-16T12:11:37.361Z,55873.27
2018-07-16T12:14:06.610Z,55825.97
2018-07-16T12:16:35.754Z,55849.62
2018-07-16T12:19:04.934Z,55855.79
2018-07-16T12:21:33.824Z,55834.20
2018-07-16T12:24:02.954Z,55839.34
2018-07-16T12:26:32.083Z,55806.43
2018-07-16T12:29:01.182Z,55808.49
2018-07-16T12:31:30.297Z,55799.24
2018-07-16T12:33:59.362Z,55811.57
2018-07-16T12:36:28.489Z,55823.91
2018-07-16T12:38:57.590Z,55816.71
2018-07-16T12:41:26.707Z,55837.28
2018-07-16T12:43:55.797Z,55846.53
2018-07-16T12:46:24.903Z,55802.32
2018-07-16T12:48:54.009Z,55811.57
2018-07-16T12:51:23.123Z,55829.05
2018-07-16T12:53:52.352Z,55816.71
2018-07-16T12:56:21.484Z,55814.66
2018-07-16T12:58:50.642Z,55801.29
2018-07-16T13:01:19.722Z,55805.41
2018-07-16T13:03:48.825Z,55804.38
2018-07-16T13:06:22.656Z,55787.93
2018-07-16T13:08:52.681Z,55767.36
2018-07-16T13:11:21.954Z,55782.79
2018-07-16T13:13:51.327Z,55797.18
2018-07-16T13:16:20.437Z,55801.29
2018-07-16T13:18:49.596Z,55808.49
2018-07-16T13:21:18.710Z,55804.38
2018-07-16T13:23:48.058Z,55789.98
2018-07-16T13:26:17.232Z,55806.43
2018-07-16T13:28:46.327Z,55820.83
2018-07-16T13:31:15.453Z,55822.88
2018-07-16T13:33:44.461Z,55812.60
2018-07-16T13:36:13.574Z,55813.63
2018-07-16T13:38:42.666Z,55794.10
2018-07-16T13:41:11.751Z,55792.04
2018-07-16T13:43:40.927Z,55779.70
2018-07-16T13:46:10.033Z,55811.57
2018-07-16T13:48:39.259Z,55806.43
2018-07-16T13:51:08.868Z,55767.36
2018-07-16T13:53:37.994Z,55802.32
2018-07-16T13:56:07.149Z,55769.42
2018-07-16T13:58:36.300Z,55783.81
2018-07-16T14:01:05.483Z,55791.01
2018-07-16T14:03:34.600Z,55811.57
2018-07-16T14:06:03.777Z,55812.60
2018-07-16T14:08:32.874Z,55804.38
2018-07-16T14:11:01.953Z,55798.21
2018-07-16T14:13:31.023Z,55768.39
2018-07-16T14:16:00.168Z,55777.64
2018-07-16T14:18:29.602Z,55795.12
2018-07-16T14:20:58.698Z,55794.10
2018-07-16T14:23:27.870Z,55829.05
2018-07-16T14:25:57.033Z,55796.15
2018-07-16T14:28:26.162Z,55777.64
2018-07-16T14:30:55.245Z,55785.87
2018-07-16T14:33:24.430Z,55789.98
2018-07-16T14:35:53.579Z,55817.75
2018-07-16T14:38:22.711Z,55779.70
2018-07-16T14:40:51.866Z,55802.32
2018-07-16T14:43:20.998Z,55799.24
2018-07-16T14:45:50.100Z,55786.90
2018-07-16T14:48:19.231Z,55777.64
2018-07-16T14:50:48.298Z,55796.15
2018-07-16T14:53:17.384Z,55786.90
2018-07-16T14:55:46.482Z,55771.48
2018-07-16T14:58:15.617Z,55798.21
2018-07-16T15:00:44.813Z,55806.43
2018-07-16T15:03:14.004Z,55788.95
2018-07-16T15:05:43.201Z,55805.41
2018-07-16T15:08:12.247Z,55814.66
2018-07-16T15:10:41.393Z,55806.43
2018-07-16T15:13:10.634Z,55808.49
2018-07-16T15:15:39.714Z,55825.97
2018-07-16T15:18:08.809Z,55804.38
2018-07-16T15:20:38.063Z,55810.55
2018-07-16T15:23:07.086Z,55824.94
2018-07-16T15:25:36.170Z,55808.49
2018-07-16T15:28:05.405Z,55796.15
2018-07-16T15:30:34.531Z,55811.57
2018-07-16T15:33:03.696Z,55814.66
2018-07-16T15:35:32.863Z,55807.46
2018-07-16T15:38:08.699Z,55810.55
2018-07-16T15:40:37.833Z,55822.88
2018-07-16T15:43:06.998Z,55822.88
2018-07-16T15:45:36.103Z,55812.60
2018-07-16T15:48:05.237Z,55816.71
2018-07-16T15:50:34.464Z,55820.83
2018-07-16T15:53:03.564Z,55812.60
2018-07-16T15:55:32.740Z,55817.75
2018-07-16T15:58:01.853Z,55833.17
2018-07-16T16:00:31.080Z,55820.83
2018-07-16T16:03:00.188Z,55835.22
2018-07-16T16:05:29.347Z,55816.71
2018-07-16T16:07:58.503Z,55820.83
2018-07-16T16:10:27.590Z,55818.77
2018-07-16T16:12:56.727Z,55809.52
2018-07-16T16:15:26.097Z,55818.77
2018-07-16T16:17:55.309Z,55806.43
2018-07-16T16:20:24.448Z,55793.07
2018-07-16T16:22:53.627Z,55794.10
2018-07-16T16:25:22.742Z,55812.60
2018-07-16T16:27:51.868Z,55814.66
2018-07-16T16:30:21.142Z,55852.70
2018-07-16T16:32:50.319Z,55835.22
2018-07-16T16:35:19.437Z,55848.59
2018-07-16T16:37:48.532Z,55816.71
2018-07-16T16:40:17.722Z,55830.08
2018-07-16T16:42:46.882Z,55832.14
2018-07-16T16:45:16.071Z,55834.20
2018-07-16T16:47:45.195Z,55814.66
2018-07-16T16:50:14.333Z,55834.20
2018-07-16T16:52:43.503Z,55822.88
2018-07-16T16:55:12.846Z,55845.50
2018-07-16T16:57:41.953Z,55827.00
2018-07-16T17:00:11.075Z,55824.94
2018-07-16T17:02:40.222Z,55837.28
2018-07-16T17:05:09.366Z,55818.77
2018-07-16T17:07:38.588Z,55856.81
2018-07-16T17:10:07.730Z,55856.81
2018-07-16T17:12:36.862Z,55843.45
2018-07-16T17:15:05.971Z,55847.56
2018-07-16T17:17:35.121Z,55850.64
2018-07-16T17:20:04.296Z,55866.07
2018-07-16T17:22:33.454Z,55855.79
2018-07-16T17:25:02.554Z,55825.97
2018-07-16T17:27:31.700Z,55838.31
2018-07-16T17:30:00.907Z,55846.53
2018-07-16T17:32:30.031Z,55845.50
2018-07-16T17:34:59.126Z,55836.25
2018-07-16T17:37:28.308Z,55859.90
2018-07-16T17:39:57.435Z,55801.29
2018-07-16T17:42:26.590Z,55843.45
2018-07-16T17:44:55.792Z,55845.50
2018-07-16T17:47:24.954Z,55841.39
2018-07-16T17:49:54.014Z,55839.34
2018-07-16T17:52:23.101Z,55842.42
2018-07-16T17:54:52.259Z,55869.15
2018-07-16T17:57:21.413Z,55847.56
2018-07-16T17:59:50.489Z,55824.94
2018-07-16T18:02:19.658Z,55855.79
2018-07-16T18:04:48.789Z,55847.56
2018-07-16T18:07:22.495Z,55840.36
2018-07-16T18:09:52.743Z,55842.42
2018-07-16T18:12:22.614Z,55837.28
2018-07-16T18:14:52.155Z,55847.56
2018-07-16T18:17:21.267Z,55822.88
2018-07-16T18:19:50.366Z,55870.18
2018-07-16T18:22:19.576Z,55870.18
2018-07-16T18:24:48.676Z,55854.76
2018-07-16T18:27:18.472Z,55843.45
2018-07-16T18:29:47.978Z,55847.56
2018-07-16T18:32:17.117Z,55894.86
2018-07-16T18:34:46.295Z,55857.84
2018-07-16T18:37:15.482Z,55849.62
2018-07-16T18:39:44.681Z,55849.62
2018-07-16T18:42:13.636Z,55855.79
2018-07-16T18:44:42.869Z,55875.32
2018-07-16T18:47:11.963Z,55855.79
2018-07-16T18:49:41.130Z,55866.07
2018-07-16T18:52:10.298Z,55882.52
2018-07-16T18:54:39.433Z,55880.46
2018-07-16T18:57:08.649Z,55900.00
2018-07-16T18:59:37.790Z,55868.12
2018-07-16T19:02:06.897Z,55872.24
2018-07-16T19:04:35.995Z,55881.49
2018-07-16T19:07:05.827Z,55854.76
2018-07-16T19:09:35.456Z,55868.12
2018-07-16T19:12:04.606Z,55884.57
2018-07-16T19:14:33.701Z,55880.46
2018-07-16T19:17:03.037Z,55888.69
2018-07-16T19:19:32.459Z,55889.72
2018-07-16T19:22:01.575Z,55842.42
2018-07-16T19:24:30.696Z,55873.27
2018-07-16T19:26:59.816Z,55892.80
2018-07-16T19:29:28.922Z,55872.24
2018-07-16T19:31:58.059Z,55884.57
2018-07-16T19:34:27.270Z,55877.38
2018-07-16T19:36:56.376Z,55880.46
2018-07-16T19:39:25.515Z,55906.17
2018-07-16T19:41:54.646Z,55886.63
2018-07-16T19:44:23.791Z,55868.12
2018-07-16T19:46:52.956Z,55903.08
2018-07-16T19:49:22.058Z,55903.08
2018-07-16T19:51:51.173Z,55886.63
2018-07-16T19:54:20.316Z,55884.57
2018-07-16T19:56:49.491Z,55887.66
2018-07-16T19:59:18.573Z,55902.05
2018-07-16T20:01:47.669Z,55901.03
2018-07-16T20:04:16.834Z,55885.61
2018-07-16T20:06:46.140Z,55893.83
2018-07-16T20:09:15.299Z,55911.31
2018-07-16T20:11:44.431Z,55903.08
2018-07-16T20:14:13.671Z,55869.15
2018-07-16T20:16:43.726Z,55879.43
2018-07-16T20:19:13.263Z,55882.52
2018-07-16T20:21:42.379Z,55914.39
2018-07-16T20:24:11.575Z,55900.00
2018-07-16T20:26:40.675Z,55868.12
2018-07-16T20:29:09.842Z,55909.25
2018-07-16T20:31:38.965Z,55902.05
2018-07-16T20:34:08.127Z,55891.77
2018-07-16T20:36:37.255Z,55894.86
2018-07-16T20:39:08.957Z,55904.11
2018-07-16T20:41:38.027Z,55922.62
2018-07-16T20:44:07.178Z,55892.80
2018-07-16T20:46:36.266Z,55908.23
2018-07-16T20:49:05.438Z,55907.20
2018-07-16T20:51:34.475Z,55914.39
2018-07-16T20:54:03.545Z,55886.63
2018-07-16T20:56:32.700Z,55894.86
2018-07-16T20:59:01.746Z,55929.82
2018-07-16T21:01:30.931Z,55908.23
2018-07-16T21:04:00.097Z,55880.46
2018-07-16T21:06:29.168Z,55904.11
2018-07-16T21:08:58.226Z,55905.14
2018-07-16T21:11:27.355Z,55945.24
2018-07-16T21:13:56.558Z,55892.80
2018-07-16T21:16:25.730Z,55913.36
2018-07-16T21:18:54.918Z,55916.45
2018-07-16T21:21:24.232Z,55909.25
2018-07-16T21:23:53.444Z,55910.28
2018-07-16T21:26:22.529Z,55905.14
2018-07-16T21:28:51.657Z,55924.68
2018-07-16T21:31:20.836Z,55923.65
2018-07-16T21:33:49.969Z,55914.39
2018-07-16T21:36:19.119Z,55918.50
2018-07-16T21:38:48.302Z,55922.62
2018-07-16T21:41:17.421Z,55929.82
2018-07-16T21:43:46.554Z,55894.86
2018-07-16T21:46:15.640Z,55919.54
2018-07-16T21:48:44.746Z,55927.76
2018-07-16T21:51:14.073Z,55892.80
2018-07-16T21:53:43.213Z,55918.50
2018-07-16T21:56:12.326Z,55915.42
2018-07-16T21:58:41.439Z,55908.23
2018-07-16T22:01:10.610Z,55911.31
2018-07-16T22:03:39.872Z,55907.20
2018-07-16T22:06:09.004Z,55908.23
2018-07-16T22:08:38.120Z,55921.59
2018-07-16T22:11:07.277Z,55906.17
2018-07-16T22:13:36.434Z,55930.84
2018-07-16T22:16:05.581Z,55894.86
2018-07-16T22:18:34.688Z,55910.28
2018-07-16T22:21:03.895Z,55931.87
2018-07-16T22:23:33.046Z,55896.91
2018-07-16T22:26:02.203Z,55884.57
2018-07-16T22:28:31.359Z,55907.20
2018-07-16T22:31:00.534Z,55922.62
2018-07-16T22:33:29.696Z,55910.28
2018-07-16T22:35:58.754Z,55947.30
2018-07-16T22:38:27.863Z,55922.62
2018-07-16T22:40:57.017Z,55915.42
2018-07-16T22:43:26.194Z,55937.01
2018-07-16T22:45:55.323Z,55919.54
2018-07-16T22:48:24.449Z,55923.65
2018-07-16T22:50:53.558Z,55941.13
2018-07-16T22:53:22.650Z,55927.76
2018-07-16T22:55:51.821Z,55914.39
2018-07-16T22:58:20.931Z,55951.41
2018-07-16T23:00:50.015Z,55907.20
2018-07-16T23:03:19.135Z,55901.03
2018-07-16T23:05:48.206Z,55940.10
2018-07-16T23:08:19.193Z,55909.25
2018-07-16T23:10:48.703Z,55933.93
2018-07-16T23:13:17.835Z,55943.18
2018-07-16T23:15:46.982Z,55929.82
2018-07-16T23:18:16.078Z,55932.90
2018-07-16T23:20:45.019Z,55903.08
2018-07-16T23:23:14.254Z,55919.54
2018-07-16T23:25:43.185Z,55921.59
2018-07-16T23:28:12.351Z,55929.82
2018-07-16T23:30:41.455Z,55963.75
2018-07-16T23:33:10.828Z,55913.36
2018-07-16T23:35:39.958Z,55946.27
2018-07-16T23:38:09.099Z,55939.07
2018-07-16T23:40:38.259Z,55939.07
2018-07-16T23:43:07.460Z,55942.16
2018-07-16T23:45:36.590Z,55954.49
2018-07-16T23:48:05.884Z,55913.36
2018-07-16T23:50:35.030Z,55958.61
2018-07-16T23:53:04.145Z,55928.79
2018-07-16T23:55:33.287Z,55937.01
2018-07-16T23:58:02.390Z,55923.65
